Ship Status Report: callsign AMOUK35

sailwx.info

Track history (hours):
 
Tides and Currents Weather Stations Pressure Air Temp Water Temp Dewpoint Dewpoint Depression Visibility Wind Speed Wind Dir Waves Ship Positions

Callsign AMOUK35 (name unknown)

Last reported at 2016-Aug-24 18:00 UTC. Time now 2016-Aug-24 19:42 UTC.
Position N 56°00' W 003°12'.

Barometer 1020.3 mb
Air temperature 18.6 ° C

Date/timePositionNaut miles runAvg speedWind from/ knotsBaromVisibWave heightAir tempDewpointWater temp
2016-Aug-24 18:00N 56°00' W 003°12'0 0.0 1020.3 18.6
2016-Aug-24 16:00N 56°00' W 003°12'0 0.0 1020.3 19.7
2016-Aug-24 15:00N 56°00' W 003°12'0 0.0 1020.4 19.1
2016-Aug-24 14:00N 56°00' W 003°12'0 0.0 1020.6 19.1
2016-Aug-24 13:00N 56°00' W 003°12'0 0.0 1020.5 18.4
2016-Aug-24 12:00N 56°00' W 003°12'0 0.0 1020.4 17.4
2016-Aug-24 09:00N 56°00' W 003°12'7 6.9 1020.2 15.9
2016-Aug-24 08:00N 56°06' W 003°06'0 0.0 1019.5 13.6
2016-Aug-24 07:00N 56°06' W 003°06'9 9.0 1018.9 13.0
2016-Aug-24 06:00N 56°12' W 002°54'0 0.0 1018.9 13.4
2016-Aug-24 05:00N 56°12' W 002°54'0 0.0 1018.5 13.5
2016-Aug-24 04:00N 56°12' W 002°54'0 0.0 1018.1 13.8
2016-Aug-24 03:00N 56°12' W 002°54'0 0.0 1018.1 13.4
2016-Aug-24 02:00N 56°12' W 002°54'0 0.0 1018.5 13.4
2016-Aug-24 01:00N 56°12' W 002°54'0 0.0 1018.5 13.5
2016-Aug-24 00:00N 56°12' W 002°54'0 0.0 1018.5 14.1
2016-Aug-23 23:00N 56°12' W 002°54'7 6.7 1018.7 14.1
2016-Aug-23 22:00N 56°12' W 002°42'9 9.0 1019.0 13.9
2016-Aug-23 21:00N 56°18' W 002°30'1212.5 1019.3 14.0
2016-Aug-23 20:00N 56°30' W 002°24'7 6.9 1019.8 13.5
2016-Aug-23 19:00N 56°36' W 002°18'1212.4 1019.8 13.2
2016-Aug-23 18:00N 56°48' W 002°12'1212.4 1020.1 12.9
2016-Aug-23 17:00N 57°00' W 002°06'9 8.9 1020.5 12.9
2016-Aug-23 16:00N 57°06' W 001°54'1212.4 1020.8 12.9
2016-Aug-23 15:00N 57°18' W 001°48'1212.4 1021.3 12.9
2016-Aug-23 14:00N 57°30' W 001°42'1212.4 1021.8 12.7
2016-Aug-23 13:00N 57°42' W 001°48'6 6.4 1022.3 12.4
2016-Aug-23 12:00N 57°42' W 002°00'3 3.2 1022.9 12.6
2016-Aug-23 11:00N 57°42' W 001°54'0 0.0 1023.0 12.5
2016-Aug-23 10:00N 57°42' W 001°54'0 0.0 1023.5 12.4
2016-Aug-23 09:00N 57°42' W 001°54'3 3.2 1024.1 12.7
2016-Aug-23 08:00N 57°42' W 002°00'3 3.2 1023.8 12.7
2016-Aug-23 07:00N 57°42' W 002°06'3 3.2 1024.1 12.4
2016-Aug-23 06:00N 57°42' W 002°12'0 0.0 1024.4 12.3
2016-Aug-23 05:00N 57°42' W 002°12'0 0.0 1023.4 12.1
2016-Aug-23 04:00N 57°42' W 002°12'0 0.0 1022.9 11.9
2016-Aug-23 03:00N 57°42' W 002°12'0 0.0 1022.6 12.6
2016-Aug-23 02:00N 57°42' W 002°12'0 0.0 1022.8 12.4
2016-Aug-23 01:00N 57°42' W 002°12'0 0.0 1022.8 13.0
2016-Aug-23 00:00N 57°42' W 002°12'0 0.0 1022.4 13.6
2016-Aug-22 23:00N 57°42' W 002°12'0 0.0 1022.2 13.5
2016-Aug-22 22:00N 57°42' W 002°12'0 0.0 1021.5 13.6
2016-Aug-22 21:00N 57°42' W 002°12'0 0.0 1020.4 14.3
2016-Aug-22 20:00N 57°42' W 002°12'10 9.6 1019.5 14.4
2016-Aug-22 19:00N 57°42' W 001°54'9 8.8 1017.5 14.9
2016-Aug-22 18:00N 57°36' W 001°42'1212.4 1017.0 14.8
2016-Aug-22 17:00N 57°24' W 001°48'7 6.8 1015.9 17.0
2016-Aug-22 16:00N 57°18' W 001°54'7 6.8 1014.9 15.2
2016-Aug-22 15:00N 57°12' W 002°00'0 0.0 1014.3 16.2
2016-Aug-22 14:00N 57°12' W 002°00'7 6.8 1013.7 16.0
2016-Aug-22 13:00N 57°18' W 001°54'7 6.8 1013.5 13.5
2016-Aug-22 12:00N 57°24' W 001°48'0 0.0 1013.8 12.8
2016-Aug-22 11:00N 57°24' W 001°48'6 6.0 1013.6 12.5
2016-Aug-22 10:00N 57°30' W 001°48'7 6.8 1013.2 12.6
2016-Aug-22 09:00N 57°36' W 001°42'9 8.8 1013.2 11.6
2016-Aug-22 08:00N 57°42' W 001°54'6 6.4 1013.1 11.3
2016-Aug-22 07:00N 57°42' W 002°06'3 3.2 1012.7 11.8
2016-Aug-22 06:00N 57°42' W 002°12'0 0.0 1012.1 11.1
2016-Aug-22 05:00N 57°42' W 002°12'0 0.0 1011.9 11.3
2016-Aug-22 04:00N 57°42' W 002°12'0 0.0 1012.4 11.9
2016-Aug-22 03:00N 57°42' W 002°12'0 0.0 1012.0 12.2
2016-Aug-22 02:00N 57°42' W 002°12'0 0.0 1011.9 12.4
2016-Aug-22 01:00N 57°42' W 002°12'0 0.0 1012.2 12.8
2016-Aug-22 00:00N 57°42' W 002°12'0 0.0 1012.3 12.8
2016-Aug-21 23:00N 57°42' W 002°12'0 0.0 1012.2 12.6
2016-Aug-21 22:00N 57°42' W 002°12'0 0.0 1012.0 12.2
2016-Aug-21 21:00N 57°42' W 002°12'0 0.0 1012.1 13.4
2016-Aug-21 20:00N 57°42' W 002°12'0 0.0 1011.7 13.6
2016-Aug-21 19:00N 57°42' W 002°12'0 0.0 1011.1 13.6
2016-Aug-21 18:00N 57°42' W 002°12'0 0.0 1010.6 13.4
2016-Aug-21 17:00N 57°42' W 002°12'0 0.0 1010.4 13.1
2016-Aug-21 16:00N 57°42' W 002°12'10 9.6 1010.2 14.4
2016-Aug-21 15:00N 57°42' W 002°30'10 9.6 1009.9 14.6
2016-Aug-21 14:00N 57°42' W 002°48'10 9.6 1009.4 14.6
2016-Aug-21 13:00N 57°42' W 003°06'6 6.4 1009.0 13.0
2016-Aug-21 12:00N 57°42' W 003°18'10 9.6 1008.7 13.3
2016-Aug-21 11:00N 57°42' W 003°00'10 9.6 1008.0 12.4
2016-Aug-21 10:00N 57°42' W 002°42'10 9.6 1006.9 11.9
2016-Aug-21 09:00N 57°42' W 002°24'6 6.4 1005.8 12.0
2016-Aug-21 08:00N 57°42' W 002°12'0 0.0 1005.2 12.2
2016-Aug-21 07:00N 57°42' W 002°12'0 0.0 1004.2 12.1
2016-Aug-21 06:00N 57°42' W 002°12'0 0.0 1003.7 12.4
2016-Aug-21 05:00N 57°42' W 002°12'0 0.0 1002.6 12.7
2016-Aug-21 04:00N 57°42' W 002°12'0 0.0 1002.0 12.9
2016-Aug-21 03:00N 57°42' W 002°12'0 0.0 1001.2 12.9
2016-Aug-21 02:00N 57°42' W 002°12'0 0.0 1000.7 12.9
2016-Aug-21 01:00N 57°42' W 002°12'0 0.0 1000.3 12.9
2016-Aug-21 00:00N 57°42' W 002°12'0 0.0 999.8 12.8
2016-Aug-20 23:00N 57°42' W 002°12'0 0.0 999.8 12.7
2016-Aug-20 22:00N 57°42' W 002°12'0 0.0 999.4 13.0
2016-Aug-20 21:00N 57°42' W 002°12'0 0.0 999.3 13.3
2016-Aug-20 20:00N 57°42' W 002°12'0 0.0 999.1 13.7
2016-Aug-20 19:00N 57°42' W 002°12'0 0.0 998.5 14.1
2016-Aug-20 18:00N 57°42' W 002°12'0 0.0 998.3 14.4
2016-Aug-20 17:00N 57°42' W 002°12'3 3.2 997.9 14.5
2016-Aug-20 16:00N 57°42' W 002°06'6 6.4 997.8 12.8
2016-Aug-20 15:00N 57°42' W 001°54'9 8.8 998.0 12.8
2016-Aug-20 14:00N 57°36' W 001°42'6 6.0 997.9 12.7
2016-Aug-20 13:00N 57°30' W 001°42'7 6.8 998.0 12.7
2016-Aug-20 12:00N 57°24' W 001°48'7 6.8 997.8 12.7
2016-Aug-20 11:00N 57°18' W 001°54'7 6.8 997.7 12.7
2016-Aug-20 10:00N 57°12' W 002°00'7 6.8 997.5 12.2
2016-Aug-20 09:00N 57°06' W 002°06'0 0.0 997.9 11.813.4
2016-Aug-20 08:00N 57°06' W 002°06'0 0.0 997.7 11.113.6
2016-Aug-20 07:00N 57°06' W 002°06'0 0.0 997.8 10.613.2
2016-Aug-20 06:00N 57°06' W 002°06'0 0.0 997.6 10.012.9
2016-Aug-20 05:00N 57°06' W 002°06'0 0.0 997.3 9.9
2016-Aug-20 04:00N 57°06' W 002°06'0 0.0 997.1 10.7
2016-Aug-20 03:00N 57°06' W 002°06'0 0.0 997.4 11.2
2016-Aug-20 02:00N 57°06' W 002°06'0 0.0 997.8 13.0
2016-Aug-20 01:00N 57°06' W 002°06'0 0.0 998.3 12.8
2016-Aug-19 23:00N 57°06' W 002°06'0 0.0 1000.6 13.5
2016-Aug-19 22:00N 57°06' W 002°06'0 0.0 1001.7 13.8
2016-Aug-19 21:00N 57°06' W 002°06'0 0.0 1002.4 13.9
2016-Aug-19 20:00N 57°06' W 002°06'0 0.0 1003.1 13.8
2016-Aug-19 19:00N 57°06' W 002°06'0 0.0 1003.5 13.9
2016-Aug-19 18:00N 57°06' W 002°06'0 0.0 1004.1 14.0
2016-Aug-19 17:00N 57°06' W 002°06'0 0.0 1004.4 14.1
2016-Aug-19 16:00N 57°06' W 002°06'0 0.0 1004.8 14.313.6
2016-Aug-19 15:00N 57°06' W 002°06'0 0.0 1005.4 14.613.5
2016-Aug-19 14:00N 57°06' W 002°06'0 0.0 1006.2 14.413.3
2016-Aug-19 13:00N 57°06' W 002°06'0 0.0 1006.7 14.3
2016-Aug-19 12:00N 57°06' W 002°06'0 0.0 1007.4 14.5
2016-Aug-19 11:00N 57°06' W 002°06'0 0.0 1008.0 14.212.3
2016-Aug-19 10:00N 57°06' W 002°06'0 0.0 1008.7 14.012.1
2016-Aug-19 09:00N 57°06' W 002°06'0 0.0 1009.3 13.711.6
2016-Aug-19 08:00N 57°06' W 002°06'7 6.8 1009.8 13.4
2016-Aug-19 07:00N 57°12' W 002°00'0 0.0 1010.0 13.5
2016-Aug-19 06:00N 57°12' W 002°00'0 0.0 1010.3 13.3
2016-Aug-19 05:00N 57°12' W 002°00'0 0.0 1010.5 13.2
2016-Aug-19 04:00N 57°12' W 002°00'0 0.0 1010.8 13.3
2016-Aug-19 03:00N 57°12' W 002°00'0 0.0 1011.4 13.3
2016-Aug-19 02:00N 57°12' W 002°00'0 0.0 1011.9 13.2
2016-Aug-19 01:00N 57°12' W 002°00'0 0.0 1012.5 13.5
2016-Aug-19 00:00N 57°12' W 002°00'0 0.0 1012.9 13.3
2016-Aug-18 23:00N 57°12' W 002°00'9 8.8 1013.5 13.2
2016-Aug-18 22:00N 57°18' W 001°48'1212.4 1013.8 13.1
2016-Aug-18 21:00N 57°30' W 001°42'7 6.8 1014.0 13.1
2016-Aug-18 20:00N 57°36' W 001°48'9 8.8 1013.6 13.1
2016-Aug-18 19:00N 57°42' W 002°00'10 9.6 1013.0 13.9
2016-Aug-18 18:00N 57°42' W 002°18'10 9.6 1011.5 14.8
2016-Aug-18 17:00N 57°42' W 002°36'10 9.6 1011.8 15.9
2016-Aug-18 16:00N 57°42' W 002°54'10 9.6 1011.2 17.0
2016-Aug-18 15:00N 57°42' W 003°12'3 3.2 1011.7 16.5
2016-Aug-18 14:00N 57°42' W 003°18'0 0.0 1012.5 15.9
2016-Aug-18 13:00N 57°42' W 003°18'6 6.4 1012.8 15.6
2016-Aug-18 12:00N 57°42' W 003°30'1111.3 1012.7 14.2
2016-Aug-18 11:00N 57°36' W 003°48'3 3.2 1012.8 14.3
2016-Aug-18 10:00N 57°36' W 003°54'3 3.2 1013.3 14.5
2016-Aug-18 09:00N 57°36' W 004°00'0 0.0 1013.4 13.9
2016-Aug-18 08:00N 57°36' W 004°00'3 3.2 1013.5 13.9
2016-Aug-18 07:00N 57°36' W 003°54'0 0.0 1013.7 13.2
2016-Aug-18 06:00N 57°36' W 003°54'0 0.0 1013.8 13.4
2016-Aug-18 05:00N 57°36' W 003°54'0 0.0 1013.6 12.2
2016-Aug-18 04:00N 57°36' W 003°54'0 0.0 1013.6 12.4
2016-Aug-18 03:00N 57°36' W 003°54'0 0.0 1013.6 13.2
2016-Aug-18 02:00N 57°36' W 003°54'0 0.0 1013.7 13.5
2016-Aug-18 01:00N 57°36' W 003°54'0 0.0 1013.7 13.8
2016-Aug-17 23:00N 57°36' W 003°54'0 0.0 1013.5 14.3
2016-Aug-17 22:00N 57°36' W 003°54'0 0.0 1013.3 14.6
2016-Aug-17 21:00N 57°36' W 003°54'0 0.0 1013.2 16.5
2016-Aug-17 20:00N 57°36' W 003°54'0 0.0 1012.6 16.7
2016-Aug-17 19:00N 57°36' W 003°54'0 0.0 1012.1 16.7
2016-Aug-17 18:00N 57°36' W 003°54'0 0.0 1012.0 17.2
2016-Aug-17 17:00N 57°36' W 003°54'0 0.0 1012.1 16.5
2016-Aug-17 16:00N 57°36' W 003°54'3 3.2 1012.2 17.8
2016-Aug-17 15:00N 57°36' W 004°00'0 0.0 1012.4 16.0
2016-Aug-17 14:00N 57°36' W 004°00'3 3.2 1013.1 16.5
2016-Aug-17 13:00N 57°36' W 004°06'7 6.8 1012.7 17.1
2016-Aug-17 12:00N 57°30' W 004°12'0 0.0 1012.9 18.4
2016-Aug-17 11:00N 57°30' W 004°12'0 0.0 1013.4 18.6
2016-Aug-17 10:00N 57°30' W 004°12'0 0.0 1013.6 17.3
2016-Aug-17 09:00N 57°30' W 004°12'0 0.0 1014.1 16.5
2016-Aug-17 08:00N 57°30' W 004°12'0 0.0 1014.3 15.6
2016-Aug-17 07:00N 57°30' W 004°12'0 0.0 1014.2 15.8
2016-Aug-17 06:00N 57°30' W 004°12'0 0.0 1014.4 13.1
2016-Aug-17 05:00N 57°30' W 004°12'0 0.0 1014.5 13.1
2016-Aug-17 04:00N 57°30' W 004°12'0 0.0 1014.6 13.4
2016-Aug-17 03:00N 57°30' W 004°12'0 0.0 1014.8 14.2
2016-Aug-17 00:00N 57°30' W 004°12'0 0.0 1015.4 17.2
2016-Aug-16 23:00N 57°30' W 004°12'0 0.0 1015.3 17.7
2016-Aug-16 22:00N 57°30' W 004°12'0 0.0 1015.2 19.0
2016-Aug-16 21:00N 57°30' W 004°12'0 0.0 1015.5 20.3
2016-Aug-16 20:00N 57°30' W 004°12'0 0.0 1015.7 18.4
2016-Aug-16 19:00N 57°30' W 004°12'0 0.0 1015.6 19.1
2016-Aug-16 18:00N 57°30' W 004°12'0 0.0 1015.8 19.1
2016-Aug-16 17:00N 57°30' W 004°12'0 0.0 1016.1 18.8
2016-Aug-16 16:00N 57°30' W 004°12'0 0.0 1016.3 19.0
2016-Aug-16 15:00N 57°30' W 004°12'0 0.0 1016.7 18.1
2016-Aug-16 14:00N 57°30' W 004°12'0 0.0 1017.0 20.1
2016-Aug-16 13:00N 57°30' W 004°12'0 0.0 1017.3 18.7
2016-Aug-16 12:00N 57°30' W 004°12'0 0.0 1017.8 18.2
2016-Aug-16 11:00N 57°30' W 004°12'3 3.2 1018.0 17.3
2016-Aug-16 10:00N 57°30' W 004°06'6 6.0 1018.7 15.9
2016-Aug-16 09:00N 57°36' W 004°06'6 6.0 1019.0 14.6
2016-Aug-16 08:00N 57°42' W 004°06'0 0.0 1019.5 11.5
2016-Aug-16 07:00N 57°42' W 004°06'0 0.0 1019.7 10.4
2016-Aug-16 06:00N 57°42' W 004°06'0 0.0 1020.0 9.9
2016-Aug-16 05:00N 57°42' W 004°06'0 0.0 1020.0 10.1
2016-Aug-16 04:00N 57°42' W 004°06'0 0.0 1020.0 11.0
2016-Aug-16 03:00N 57°42' W 004°06'0 0.0 1020.0 11.3
2016-Aug-16 02:00N 57°42' W 004°06'0 0.0 1020.1 11.6
2016-Aug-16 01:00N 57°42' W 004°06'0 0.0 1020.4 12.3
2016-Aug-16 00:00N 57°42' W 004°06'0 0.0 1020.5 12.4
2016-Aug-15 23:00N 57°42' W 004°06'0 0.0 1020.5 12.7
2016-Aug-15 22:00N 57°42' W 004°06'0 0.0 1020.4 13.3
2016-Aug-15 21:00N 57°42' W 004°06'0 0.0 1020.4 13.7
2016-Aug-15 20:00N 57°42' W 004°06'0 0.0 1020.5 14.9
2016-Aug-15 19:00N 57°42' W 004°06'0 0.0 1020.7 15.7
2016-Aug-15 18:00N 57°42' W 004°06'0 0.0 1020.7 16.1
2016-Aug-15 17:00N 57°42' W 004°06'0 0.0 1021.0 16.0
2016-Aug-15 16:00N 57°42' W 004°06'6 6.0 1021.4 15.5
2016-Aug-15 15:00N 57°36' W 004°06'3 3.2 1021.9 14.4
2016-Aug-15 14:00N 57°36' W 004°00'9 8.8 1022.5 14.8
2016-Aug-15 13:00N 57°42' W 003°48'1515.4 080 1023.110.8 15.7 9.7
2016-Aug-15 12:00N 57°54' W 003°30'9 8.7 1023.6 15.1
2016-Aug-15 11:00N 58°00' W 003°18'9 8.7 1024.0 15.6
2016-Aug-15 10:00N 57°54' W 003°30'9 8.8 1024.2 12.4
2016-Aug-15 09:00N 57°48' W 003°42'9 8.8 1024.3 12.2
2016-Aug-15 08:00N 57°42' W 003°54'6 6.4 1024.7 11.4
2016-Aug-15 07:00N 57°42' W 004°06'0 0.0 1025.0 9.7
2016-Aug-15 06:00N 57°42' W 004°06'0 0.0 1025.1 9.3
2016-Aug-15 05:00N 57°42' W 004°06'0 0.0 1025.2 10.0
2016-Aug-15 04:00N 57°42' W 004°06'0 0.0 1025.5 10.3
2016-Aug-15 03:00N 57°42' W 004°06'0 0.0 1025.4 10.9
2016-Aug-15 02:00N 57°42' W 004°06'0 0.0 1025.6 11.5
2016-Aug-15 01:00N 57°42' W 004°06'0 0.0 1025.6 12.3
2016-Aug-15 00:00N 57°42' W 004°06'0 0.0 1025.9 13.0
2016-Aug-14 23:00N 57°42' W 004°06'0 0.0 1026.2 13.5
2016-Aug-14 22:00N 57°42' W 004°06'0 0.0 1026.2 13.7
2016-Aug-14 21:00N 57°42' W 004°06'0 0.0 1026.0 13.9
2016-Aug-14 20:00N 57°42' W 004°06'0 0.0 1025.6 14.5
2016-Aug-14 19:00N 57°42' W 004°06'0 0.0 1025.1 15.3
2016-Aug-14 18:00N 57°42' W 004°06'   1025.1 16.1
Track history (hours):
 
Tides and Currents Weather Stations Pressure Air Temp Water Temp Dewpoint Dewpoint Depression Visibility Wind Speed Wind Dir Waves Ship Positions

Callsign AMOUK35 (name unknown)

Last reported at 2016-Aug-24 18:00 UTC. Time now 2016-Aug-24 19:42 UTC.
Position N 56°00' W 003°12'.

Barometer 1020.3 mb
Air temperature 18.6 ° C

Date/timePositionNaut miles runAvg speedWind from/ knotsBaromVisibWave heightAir tempDewpointWater temp
2016-Aug-24 18:00N 56°00' W 003°12'0 0.0 1020.3 18.6
2016-Aug-24 16:00N 56°00' W 003°12'0 0.0 1020.3 19.7
2016-Aug-24 15:00N 56°00' W 003°12'0 0.0 1020.4 19.1
2016-Aug-24 14:00N 56°00' W 003°12'0 0.0 1020.6 19.1
2016-Aug-24 13:00N 56°00' W 003°12'0 0.0 1020.5 18.4
2016-Aug-24 12:00N 56°00' W 003°12'0 0.0 1020.4 17.4
2016-Aug-24 09:00N 56°00' W 003°12'7 6.9 1020.2 15.9
2016-Aug-24 08:00N 56°06' W 003°06'0 0.0 1019.5 13.6
2016-Aug-24 07:00N 56°06' W 003°06'9 9.0 1018.9 13.0
2016-Aug-24 06:00N 56°12' W 002°54'0 0.0 1018.9 13.4
2016-Aug-24 05:00N 56°12' W 002°54'0 0.0 1018.5 13.5
2016-Aug-24 04:00N 56°12' W 002°54'0 0.0 1018.1 13.8
2016-Aug-24 03:00N 56°12' W 002°54'0 0.0 1018.1 13.4
2016-Aug-24 02:00N 56°12' W 002°54'0 0.0 1018.5 13.4
2016-Aug-24 01:00N 56°12' W 002°54'0 0.0 1018.5 13.5
2016-Aug-24 00:00N 56°12' W 002°54'0 0.0 1018.5 14.1
2016-Aug-23 23:00N 56°12' W 002°54'7 6.7 1018.7 14.1
2016-Aug-23 22:00N 56°12' W 002°42'9 9.0 1019.0 13.9
2016-Aug-23 21:00N 56°18' W 002°30'1212.5 1019.3 14.0
2016-Aug-23 20:00N 56°30' W 002°24'7 6.9 1019.8 13.5
2016-Aug-23 19:00N 56°36' W 002°18'1212.4 1019.8 13.2
2016-Aug-23 18:00N 56°48' W 002°12'1212.4 1020.1 12.9
2016-Aug-23 17:00N 57°00' W 002°06'9 8.9 1020.5 12.9
2016-Aug-23 16:00N 57°06' W 001°54'1212.4 1020.8 12.9
2016-Aug-23 15:00N 57°18' W 001°48'1212.4 1021.3 12.9
2016-Aug-23 14:00N 57°30' W 001°42'1212.4 1021.8 12.7
2016-Aug-23 13:00N 57°42' W 001°48'6 6.4 1022.3 12.4
2016-Aug-23 12:00N 57°42' W 002°00'3 3.2 1022.9 12.6
2016-Aug-23 11:00N 57°42' W 001°54'0 0.0 1023.0 12.5
2016-Aug-23 10:00N 57°42' W 001°54'0 0.0 1023.5 12.4
2016-Aug-23 09:00N 57°42' W 001°54'3 3.2 1024.1 12.7
2016-Aug-23 08:00N 57°42' W 002°00'3 3.2 1023.8 12.7
2016-Aug-23 07:00N 57°42' W 002°06'3 3.2 1024.1 12.4
2016-Aug-23 06:00N 57°42' W 002°12'0 0.0 1024.4 12.3
2016-Aug-23 05:00N 57°42' W 002°12'0 0.0 1023.4 12.1
2016-Aug-23 04:00N 57°42' W 002°12'0 0.0 1022.9 11.9
2016-Aug-23 03:00N 57°42' W 002°12'0 0.0 1022.6 12.6
2016-Aug-23 02:00N 57°42' W 002°12'0 0.0 1022.8 12.4
2016-Aug-23 01:00N 57°42' W 002°12'0 0.0 1022.8 13.0
2016-Aug-23 00:00N 57°42' W 002°12'0 0.0 1022.4 13.6
2016-Aug-22 23:00N 57°42' W 002°12'0 0.0 1022.2 13.5
2016-Aug-22 22:00N 57°42' W 002°12'0 0.0 1021.5 13.6
2016-Aug-22 21:00N 57°42' W 002°12'0 0.0 1020.4 14.3
2016-Aug-22 20:00N 57°42' W 002°12'10 9.6 1019.5 14.4
2016-Aug-22 19:00N 57°42' W 001°54'9 8.8 1017.5 14.9
2016-Aug-22 18:00N 57°36' W 001°42'1212.4 1017.0 14.8
2016-Aug-22 17:00N 57°24' W 001°48'7 6.8 1015.9 17.0
2016-Aug-22 16:00N 57°18' W 001°54'7 6.8 1014.9 15.2
2016-Aug-22 15:00N 57°12' W 002°00'0 0.0 1014.3 16.2
2016-Aug-22 14:00N 57°12' W 002°00'7 6.8 1013.7 16.0
2016-Aug-22 13:00N 57°18' W 001°54'7 6.8 1013.5 13.5
2016-Aug-22 12:00N 57°24' W 001°48'0 0.0 1013.8 12.8
2016-Aug-22 11:00N 57°24' W 001°48'6 6.0 1013.6 12.5
2016-Aug-22 10:00N 57°30' W 001°48'7 6.8 1013.2 12.6
2016-Aug-22 09:00N 57°36' W 001°42'9 8.8 1013.2 11.6
2016-Aug-22 08:00N 57°42' W 001°54'6 6.4 1013.1 11.3
2016-Aug-22 07:00N 57°42' W 002°06'3 3.2 1012.7 11.8
2016-Aug-22 06:00N 57°42' W 002°12'0 0.0 1012.1 11.1
2016-Aug-22 05:00N 57°42' W 002°12'0 0.0 1011.9 11.3
2016-Aug-22 04:00N 57°42' W 002°12'0 0.0 1012.4 11.9
2016-Aug-22 03:00N 57°42' W 002°12'0 0.0 1012.0 12.2
2016-Aug-22 02:00N 57°42' W 002°12'0 0.0 1011.9 12.4
2016-Aug-22 01:00N 57°42' W 002°12'0 0.0 1012.2 12.8
2016-Aug-22 00:00N 57°42' W 002°12'0 0.0 1012.3 12.8
2016-Aug-21 23:00N 57°42' W 002°12'0 0.0 1012.2 12.6
2016-Aug-21 22:00N 57°42' W 002°12'0 0.0 1012.0 12.2
2016-Aug-21 21:00N 57°42' W 002°12'0 0.0 1012.1 13.4
2016-Aug-21 20:00N 57°42' W 002°12'0 0.0 1011.7 13.6
2016-Aug-21 19:00N 57°42' W 002°12'0 0.0 1011.1 13.6
2016-Aug-21 18:00N 57°42' W 002°12'0 0.0 1010.6 13.4
2016-Aug-21 17:00N 57°42' W 002°12'0 0.0 1010.4 13.1
2016-Aug-21 16:00N 57°42' W 002°12'10 9.6 1010.2 14.4
2016-Aug-21 15:00N 57°42' W 002°30'10 9.6 1009.9 14.6
2016-Aug-21 14:00N 57°42' W 002°48'10 9.6 1009.4 14.6
2016-Aug-21 13:00N 57°42' W 003°06'6 6.4 1009.0 13.0
2016-Aug-21 12:00N 57°42' W 003°18'10 9.6 1008.7 13.3
2016-Aug-21 11:00N 57°42' W 003°00'10 9.6 1008.0 12.4
2016-Aug-21 10:00N 57°42' W 002°42'10 9.6 1006.9 11.9
2016-Aug-21 09:00N 57°42' W 002°24'6 6.4 1005.8 12.0
2016-Aug-21 08:00N 57°42' W 002°12'0 0.0 1005.2 12.2
2016-Aug-21 07:00N 57°42' W 002°12'0 0.0 1004.2 12.1
2016-Aug-21 06:00N 57°42' W 002°12'0 0.0 1003.7 12.4
2016-Aug-21 05:00N 57°42' W 002°12'0 0.0 1002.6 12.7
2016-Aug-21 04:00N 57°42' W 002°12'0 0.0 1002.0 12.9
2016-Aug-21 03:00N 57°42' W 002°12'0 0.0 1001.2 12.9
2016-Aug-21 02:00N 57°42' W 002°12'0 0.0 1000.7 12.9
2016-Aug-21 01:00N 57°42' W 002°12'0 0.0 1000.3 12.9
2016-Aug-21 00:00N 57°42' W 002°12'0 0.0 999.8 12.8
2016-Aug-20 23:00N 57°42' W 002°12'0 0.0 999.8 12.7
2016-Aug-20 22:00N 57°42' W 002°12'0 0.0 999.4 13.0
2016-Aug-20 21:00N 57°42' W 002°12'0 0.0 999.3 13.3
2016-Aug-20 20:00N 57°42' W 002°12'0 0.0 999.1 13.7
2016-Aug-20 19:00N 57°42' W 002°12'0 0.0 998.5 14.1
2016-Aug-20 18:00N 57°42' W 002°12'0 0.0 998.3 14.4
2016-Aug-20 17:00N 57°42' W 002°12'3 3.2 997.9 14.5
2016-Aug-20 16:00N 57°42' W 002°06'6 6.4 997.8 12.8
2016-Aug-20 15:00N 57°42' W 001°54'9 8.8 998.0 12.8
2016-Aug-20 14:00N 57°36' W 001°42'6 6.0 997.9 12.7
2016-Aug-20 13:00N 57°30' W 001°42'7 6.8 998.0 12.7
2016-Aug-20 12:00N 57°24' W 001°48'7 6.8 997.8 12.7
2016-Aug-20 11:00N 57°18' W 001°54'7 6.8 997.7 12.7
2016-Aug-20 10:00N 57°12' W 002°00'7 6.8 997.5 12.2
2016-Aug-20 09:00N 57°06' W 002°06'0 0.0 997.9 11.813.4
2016-Aug-20 08:00N 57°06' W 002°06'0 0.0 997.7 11.113.6
2016-Aug-20 07:00N 57°06' W 002°06'0 0.0 997.8 10.613.2
2016-Aug-20 06:00N 57°06' W 002°06'0 0.0 997.6 10.012.9
2016-Aug-20 05:00N 57°06' W 002°06'0 0.0 997.3 9.9
2016-Aug-20 04:00N 57°06' W 002°06'0 0.0 997.1 10.7
2016-Aug-20 03:00N 57°06' W 002°06'0 0.0 997.4 11.2
2016-Aug-20 02:00N 57°06' W 002°06'0 0.0 997.8 13.0
2016-Aug-20 01:00N 57°06' W 002°06'0 0.0 998.3 12.8
2016-Aug-19 23:00N 57°06' W 002°06'0 0.0 1000.6 13.5
2016-Aug-19 22:00N 57°06' W 002°06'0 0.0 1001.7 13.8
2016-Aug-19 21:00N 57°06' W 002°06'0 0.0 1002.4 13.9
2016-Aug-19 20:00N 57°06' W 002°06'0 0.0 1003.1 13.8
2016-Aug-19 19:00N 57°06' W 002°06'0 0.0 1003.5 13.9
2016-Aug-19 18:00N 57°06' W 002°06'0 0.0 1004.1 14.0
2016-Aug-19 17:00N 57°06' W 002°06'0 0.0 1004.4 14.1
2016-Aug-19 16:00N 57°06' W 002°06'0 0.0 1004.8 14.313.6
2016-Aug-19 15:00N 57°06' W 002°06'0 0.0 1005.4 14.613.5
2016-Aug-19 14:00N 57°06' W 002°06'0 0.0 1006.2 14.413.3
2016-Aug-19 13:00N 57°06' W 002°06'0 0.0 1006.7 14.3
2016-Aug-19 12:00N 57°06' W 002°06'0 0.0 1007.4 14.5
2016-Aug-19 11:00N 57°06' W 002°06'0 0.0 1008.0 14.212.3
2016-Aug-19 10:00N 57°06' W 002°06'0 0.0 1008.7 14.012.1
2016-Aug-19 09:00N 57°06' W 002°06'0 0.0 1009.3 13.711.6
2016-Aug-19 08:00N 57°06' W 002°06'7 6.8 1009.8 13.4
2016-Aug-19 07:00N 57°12' W 002°00'0 0.0 1010.0 13.5
2016-Aug-19 06:00N 57°12' W 002°00'0 0.0 1010.3 13.3
2016-Aug-19 05:00N 57°12' W 002°00'0 0.0 1010.5 13.2
2016-Aug-19 04:00N 57°12' W 002°00'0 0.0 1010.8 13.3
2016-Aug-19 03:00N 57°12' W 002°00'0 0.0 1011.4 13.3
2016-Aug-19 02:00N 57°12' W 002°00'0 0.0 1011.9 13.2
2016-Aug-19 01:00N 57°12' W 002°00'0 0.0 1012.5 13.5
2016-Aug-19 00:00N 57°12' W 002°00'0 0.0 1012.9 13.3
2016-Aug-18 23:00N 57°12' W 002°00'9 8.8 1013.5 13.2
2016-Aug-18 22:00N 57°18' W 001°48'1212.4 1013.8 13.1
2016-Aug-18 21:00N 57°30' W 001°42'7 6.8 1014.0 13.1
2016-Aug-18 20:00N 57°36' W 001°48'9 8.8 1013.6 13.1
2016-Aug-18 19:00N 57°42' W 002°00'10 9.6 1013.0 13.9
2016-Aug-18 18:00N 57°42' W 002°18'10 9.6 1011.5 14.8
2016-Aug-18 17:00N 57°42' W 002°36'10 9.6 1011.8 15.9
2016-Aug-18 16:00N 57°42' W 002°54'10 9.6 1011.2 17.0
2016-Aug-18 15:00N 57°42' W 003°12'3 3.2 1011.7 16.5
2016-Aug-18 14:00N 57°42' W 003°18'0 0.0 1012.5 15.9
2016-Aug-18 13:00N 57°42' W 003°18'6 6.4 1012.8 15.6
2016-Aug-18 12:00N 57°42' W 003°30'1111.3 1012.7 14.2
2016-Aug-18 11:00N 57°36' W 003°48'3 3.2 1012.8 14.3
2016-Aug-18 10:00N 57°36' W 003°54'3 3.2 1013.3 14.5
2016-Aug-18 09:00N 57°36' W 004°00'0 0.0 1013.4 13.9
2016-Aug-18 08:00N 57°36' W 004°00'3 3.2 1013.5 13.9
2016-Aug-18 07:00N 57°36' W 003°54'0 0.0 1013.7 13.2
2016-Aug-18 06:00N 57°36' W 003°54'0 0.0 1013.8 13.4
2016-Aug-18 05:00N 57°36' W 003°54'0 0.0 1013.6 12.2
2016-Aug-18 04:00N 57°36' W 003°54'0 0.0 1013.6 12.4
2016-Aug-18 03:00N 57°36' W 003°54'0 0.0 1013.6 13.2
2016-Aug-18 02:00N 57°36' W 003°54'0 0.0 1013.7 13.5
2016-Aug-18 01:00N 57°36' W 003°54'0 0.0 1013.7 13.8
2016-Aug-17 23:00N 57°36' W 003°54'0 0.0 1013.5 14.3
2016-Aug-17 22:00N 57°36' W 003°54'0 0.0 1013.3 14.6
2016-Aug-17 21:00N 57°36' W 003°54'0 0.0 1013.2 16.5
2016-Aug-17 20:00N 57°36' W 003°54'0 0.0 1012.6 16.7
2016-Aug-17 19:00N 57°36' W 003°54'0 0.0 1012.1 16.7
2016-Aug-17 18:00N 57°36' W 003°54'0 0.0 1012.0 17.2
2016-Aug-17 17:00N 57°36' W 003°54'0 0.0 1012.1 16.5
2016-Aug-17 16:00N 57°36' W 003°54'3 3.2 1012.2 17.8
2016-Aug-17 15:00N 57°36' W 004°00'0 0.0 1012.4 16.0
2016-Aug-17 14:00N 57°36' W 004°00'3 3.2 1013.1 16.5
2016-Aug-17 13:00N 57°36' W 004°06'7 6.8 1012.7 17.1
2016-Aug-17 12:00N 57°30' W 004°12'0 0.0 1012.9 18.4
2016-Aug-17 11:00N 57°30' W 004°12'0 0.0 1013.4 18.6
2016-Aug-17 10:00N 57°30' W 004°12'0 0.0 1013.6 17.3
2016-Aug-17 09:00N 57°30' W 004°12'0 0.0 1014.1 16.5
2016-Aug-17 08:00N 57°30' W 004°12'0 0.0 1014.3 15.6
2016-Aug-17 07:00N 57°30' W 004°12'0 0.0 1014.2 15.8
2016-Aug-17 06:00N 57°30' W 004°12'0 0.0 1014.4 13.1
2016-Aug-17 05:00N 57°30' W 004°12'0 0.0 1014.5 13.1
2016-Aug-17 04:00N 57°30' W 004°12'0 0.0 1014.6 13.4
2016-Aug-17 03:00N 57°30' W 004°12'0 0.0 1014.8 14.2
2016-Aug-17 00:00N 57°30' W 004°12'0 0.0 1015.4 17.2
2016-Aug-16 23:00N 57°30' W 004°12'0 0.0 1015.3 17.7
2016-Aug-16 22:00N 57°30' W 004°12'0 0.0 1015.2 19.0
2016-Aug-16 21:00N 57°30' W 004°12'0 0.0 1015.5 20.3
2016-Aug-16 20:00N 57°30' W 004°12'0 0.0 1015.7 18.4
2016-Aug-16 19:00N 57°30' W 004°12'0 0.0 1015.6 19.1
2016-Aug-16 18:00N 57°30' W 004°12'0 0.0 1015.8 19.1
2016-Aug-16 17:00N 57°30' W 004°12'0 0.0 1016.1 18.8
2016-Aug-16 16:00N 57°30' W 004°12'0 0.0 1016.3 19.0
2016-Aug-16 15:00N 57°30' W 004°12'0 0.0 1016.7 18.1
2016-Aug-16 14:00N 57°30' W 004°12'0 0.0 1017.0 20.1
2016-Aug-16 13:00N 57°30' W 004°12'0 0.0 1017.3 18.7
2016-Aug-16 12:00N 57°30' W 004°12'0 0.0 1017.8 18.2
2016-Aug-16 11:00N 57°30' W 004°12'3 3.2 1018.0 17.3
2016-Aug-16 10:00N 57°30' W 004°06'6 6.0 1018.7 15.9
2016-Aug-16 09:00N 57°36' W 004°06'6 6.0 1019.0 14.6
2016-Aug-16 08:00N 57°42' W 004°06'0 0.0 1019.5 11.5
2016-Aug-16 07:00N 57°42' W 004°06'0 0.0 1019.7 10.4
2016-Aug-16 06:00N 57°42' W 004°06'0 0.0 1020.0 9.9
2016-Aug-16 05:00N 57°42' W 004°06'0 0.0 1020.0 10.1
2016-Aug-16 04:00N 57°42' W 004°06'0 0.0 1020.0 11.0
2016-Aug-16 03:00N 57°42' W 004°06'0 0.0 1020.0 11.3
2016-Aug-16 02:00N 57°42' W 004°06'0 0.0 1020.1 11.6
2016-Aug-16 01:00N 57°42' W 004°06'0 0.0 1020.4 12.3
2016-Aug-16 00:00N 57°42' W 004°06'0 0.0 1020.5 12.4
2016-Aug-15 23:00N 57°42' W 004°06'0 0.0 1020.5 12.7
2016-Aug-15 22:00N 57°42' W 004°06'0 0.0 1020.4 13.3
2016-Aug-15 21:00N 57°42' W 004°06'0 0.0 1020.4 13.7
2016-Aug-15 20:00N 57°42' W 004°06'0 0.0 1020.5 14.9
2016-Aug-15 19:00N 57°42' W 004°06'0 0.0 1020.7 15.7
2016-Aug-15 18:00N 57°42' W 004°06'0 0.0 1020.7 16.1
2016-Aug-15 17:00N 57°42' W 004°06'0 0.0 1021.0 16.0
2016-Aug-15 16:00N 57°42' W 004°06'6 6.0 1021.4 15.5
2016-Aug-15 15:00N 57°36' W 004°06'3 3.2 1021.9 14.4
2016-Aug-15 14:00N 57°36' W 004°00'9 8.8 1022.5 14.8
2016-Aug-15 13:00N 57°42' W 003°48'1515.4 080 1023.110.8 15.7 9.7
2016-Aug-15 12:00N 57°54' W 003°30'9 8.7 1023.6 15.1
2016-Aug-15 11:00N 58°00' W 003°18'9 8.7 1024.0 15.6
2016-Aug-15 10:00N 57°54' W 003°30'9 8.8 1024.2 12.4
2016-Aug-15 09:00N 57°48' W 003°42'9 8.8 1024.3 12.2
2016-Aug-15 08:00N 57°42' W 003°54'6 6.4 1024.7 11.4
2016-Aug-15 07:00N 57°42' W 004°06'0 0.0 1025.0 9.7
2016-Aug-15 06:00N 57°42' W 004°06'0 0.0 1025.1 9.3
2016-Aug-15 05:00N 57°42' W 004°06'0 0.0 1025.2 10.0
2016-Aug-15 04:00N 57°42' W 004°06'0 0.0 1025.5 10.3
2016-Aug-15 03:00N 57°42' W 004°06'0 0.0 1025.4 10.9
2016-Aug-15 02:00N 57°42' W 004°06'0 0.0 1025.6 11.5
2016-Aug-15 01:00N 57°42' W 004°06'0 0.0 1025.6 12.3
2016-Aug-15 00:00N 57°42' W 004°06'0 0.0 1025.9 13.0
2016-Aug-14 23:00N 57°42' W 004°06'0 0.0 1026.2 13.5
2016-Aug-14 22:00N 57°42' W 004°06'0 0.0 1026.2 13.7
2016-Aug-14 21:00N 57°42' W 004°06'0 0.0 1026.0 13.9
2016-Aug-14 20:00N 57°42' W 004°06'0 0.0 1025.6 14.5
2016-Aug-14 19:00N 57°42' W 004°06'0 0.0 1025.1 15.3
2016-Aug-14 18:00N 57°42' W 004°06'   1025.1 16.1

Dump ship's entire track history